Time;durP1;ratioP1;P1;durP2;ratioP2;P2;SDS_P1;SDS_P2;PMS_P1;PMS_P2;Temp;Humidity;BMP_temperature;BMP_pressure;BME280_temperature;BME280_humidity;BME280_pressure;Samples;Min_cycle;Max_cycle;Signal;HPM_P1;HPM_P2
2022/10/06 00:00:20;;;;;;;3.92;2.53;;;;;;;11.98;100.00;99491.94;5011226;28;20103;-71
2022/10/06 00:02:46;;;;;;;4.82;2.60;;;;;;;12.02;100.00;99506.75;5010431;28;20026;-71
2022/10/06 00:05:12;;;;;;;5.75;2.67;;;;;;;11.87;100.00;99511.41;5008338;28;20411;-71
2022/10/06 00:07:37;;;;;;;3.75;2.45;;;;;;;11.68;100.00;99505.56;5002847;28;20030;-70
2022/10/06 00:10:05;;;;;;;8.55;2.90;;;;;;;11.59;100.00;99512.16;5011185;28;20018;-70
2022/10/06 00:12:41;;;;;;;5.95;2.35;;;;;;;11.49;100.00;99520.59;5015621;28;20028;-71
2022/10/06 00:15:07;;;;;;;6.13;2.85;;;;;;;11.31;100.00;99525.59;5007872;28;20037;-70
2022/10/06 00:17:33;;;;;;;4.75;2.75;;;;;;;11.27;100.00;99522.44;5009733;28;20045;-71
2022/10/06 00:19:59;;;;;;;4.95;2.90;;;;;;;11.44;100.00;99530.34;5007422;28;20030;-70
2022/10/06 00:22:24;;;;;;;4.07;2.70;;;;;;;11.41;100.00;99531.56;5004305;28;20036;-71
2022/10/06 00:24:49;;;;;;;6.20;3.10;;;;;;;11.40;100.00;99538.03;5018550;28;20369;-72
2022/10/06 00:27:14;;;;;;;4.97;2.85;;;;;;;11.34;100.00;99538.78;5009056;28;20096;-71
2022/10/06 00:29:41;;;;;;;4.75;2.90;;;;;;;11.25;100.00;99532.63;5007537;28;20036;-71
2022/10/06 00:32:08;;;;;;;8.82;2.95;;;;;;;11.27;100.00;99537.88;5008751;28;20030;-71
2022/10/06 00:34:35;;;;;;;5.20;3.15;;;;;;;11.33;100.00;99545.22;5010537;28;20029;-71
2022/10/06 00:37:01;;;;;;;5.03;3.30;;;;;;;11.25;100.00;99545.34;5006090;28;20057;-71
2022/10/06 00:39:26;;;;;;;5.10;2.78;;;;;;;11.25;100.00;99545.34;5008466;28;20061;-70
2022/10/06 00:41:51;;;;;;;5.80;2.88;;;;;;;11.12;100.00;99541.44;5012963;28;20026;-71
2022/10/06 00:44:17;;;;;;;5.25;3.20;;;;;;;11.03;100.00;99544.41;5009524;28;20579;-71
2022/10/06 00:46:46;;;;;;;7.88;2.92;;;;;;;10.91;100.00;99554.91;5004839;28;20438;-71
2022/10/06 00:49:11;;;;;;;;;;;;;;;10.83;100.00;99558.53;5008302;28;20495;-71
2022/10/06 00:51:41;;;;;;;4.13;3.07;;;;;;;10.90;100.00;99572.19;5009383;28;19921;-71
2022/10/06 00:54:07;;;;;;;7.55;2.80;;;;;;;10.87;100.00;99559.84;5012080;28;20287;-70
2022/10/06 00:56:33;;;;;;;6.40;3.22;;;;;;;10.89;100.00;99557.78;5013114;28;20057;-71
2022/10/06 00:58:58;;;;;;;4.75;3.15;;;;;;;10.93;100.00;99569.94;5005009;28;20053;-70
2022/10/06 01:01:25;;;;;;;7.30;3.10;;;;;;;10.92;100.00;99573.63;5010416;28;20022;-71
2022/10/06 01:03:59;;;;;;;7.72;2.95;;;;;;;10.89;100.00;99571.31;5008635;28;20029;-71
2022/10/06 01:06:25;;;;;;;8.90;3.40;;;;;;;10.83;100.00;99574.78;5009267;28;20026;-71
2022/10/06 01:08:51;;;;;;;4.75;3.03;;;;;;;10.59;100.00;99551.53;5006362;28;20045;-71
2022/10/06 01:11:16;;;;;;;6.28;3.40;;;;;;;10.58;100.00;99562.53;5014152;28;20061;-70
2022/10/06 01:13:44;;;;;;;9.23;3.28;;;;;;;10.54;100.00;99572.88;5005108;28;20507;-71
2022/10/06 01:16:17;;;;;;;6.80;3.53;;;;;;;10.59;100.00;99583.16;5003924;28;20034;-71
2022/10/06 01:18:43;;;;;;;8.10;2.97;;;;;;;10.57;100.00;99575.22;5002830;28;20030;-71
2022/10/06 01:21:33;;;;;;;4.90;2.90;;;;;;;10.52;100.00;99594.69;5006641;28;20034;-70
2022/10/06 01:24:00;;;;;;;;;;;;;;;10.55;100.00;99587.25;5009708;28;20037;-71
2022/10/06 01:26:27;;;;;;;4.22;2.75;;;;;;;10.48;100.00;99604.22;5003754;28;19963;-71
2022/10/06 01:28:52;;;;;;;5.80;3.42;;;;;;;10.43;100.00;99585.00;5012037;28;20073;-70
2022/10/06 01:31:18;;;;;;;5.35;3.20;;;;;;;10.48;100.00;99619.63;5011394;28;20478;-70
2022/10/06 01:33:43;;;;;;;4.75;2.75;;;;;;;10.53;100.00;99611.78;5001220;28;20796;-71
2022/10/06 01:36:08;;;;;;;5.30;2.47;;;;;;;10.49;100.00;99621.28;5001770;28;20029;-71
2022/10/06 01:38:35;;;;;;;5.45;2.95;;;;;;;10.71;100.00;99611.44;5010012;28;20030;-71
2022/10/06 01:41:00;;;;;;;6.57;2.90;;;;;;;10.69;100.00;99608.94;5011097;28;20790;-71
2022/10/06 01:43:26;;;;;;;11.88;4.35;;;;;;;10.67;100.00;99597.44;5003067;28;20026;-71
2022/10/06 01:45:55;;;;;;;9.20;4.13;;;;;;;10.77;100.00;99613.41;5004669;28;20037;-71
2022/10/06 01:48:22;;;;;;;8.23;3.50;;;;;;;10.58;100.00;99608.53;5009147;28;20034;-71
2022/10/06 01:50:47;;;;;;;9.88;3.60;;;;;;;10.56;100.00;99587.06;5005589;28;20041;-71
2022/10/06 01:53:13;;;;;;;9.20;3.50;;;;;;;10.55;100.00;99604.31;4998632;28;22236;-71
2022/10/06 01:55:38;;;;;;;6.45;3.10;;;;;;;10.36;100.00;99591.31;5009957;28;20034;-70
2022/10/06 01:58:03;;;;;;;8.05;2.65;;;;;;;10.39;100.00;99596.34;5006698;28;20032;-70
2022/10/06 02:00:29;;;;;;;8.23;3.13;;;;;;;10.28;100.00;99598.47;5011764;28;20030;-70
2022/10/06 02:02:54;;;;;;;5.50;3.20;;;;;;;10.16;100.00;99599.88;5006309;28;20419;-70
2022/10/06 02:05:20;;;;;;;5.20;2.92;;;;;;;10.15;100.00;99609.03;5014746;28;20487;-71
2022/10/06 02:07:45;;;;;;;5.47;2.65;;;;;;;10.10;100.00;99616.84;5017956;28;20037;-71
2022/10/06 02:10:10;;;;;;;11.23;2.65;;;;;;;10.08;100.00;99617.00;5018097;28;20018;-70
2022/10/06 02:12:35;;;;;;;6.90;3.38;;;;;;;10.01;100.00;99596.31;5020754;28;20037;-70
2022/10/06 02:15:01;;;;;;;4.45;3.00;;;;;;;10.26;100.00;99630.22;5033136;28;20033;-70
2022/10/06 02:17:28;;;;;;;4.20;2.78;;;;;;;10.24;100.00;99626.00;5032864;28;20002;-71
2022/10/06 02:19:53;;;;;;;5.35;2.88;;;;;;;10.16;100.00;99607.16;5032976;28;20085;-72
2022/10/06 02:22:18;;;;;;;6.90;3.60;;;;;;;10.24;100.00;99643.09;5028887;28;20006;-71
2022/10/06 02:24:43;;;;;;;6.00;2.67;;;;;;;10.36;100.00;99637.31;5029876;28;20097;-71
2022/10/06 02:27:09;;;;;;;4.78;2.88;;;;;;;10.26;100.00;99626.69;5032063;28;20026;-71
2022/10/06 02:29:34;;;;;;;8.98;3.05;;;;;;;10.11;100.00;99623.91;5029418;28;20032;-72
2022/10/06 02:32:00;;;;;;;8.63;2.45;;;;;;;9.99;100.00;99620.81;5031564;28;20026;-71
2022/10/06 02:34:25;;;;;;;6.20;2.28;;;;;;;10.05;100.00;99638.16;5029988;28;20030;-72
2022/10/06 02:36:50;;;;;;;10.68;2.50;;;;;;;9.96;100.00;99648.19;5026040;28;20045;-71
2022/10/06 02:39:16;;;;;;;4.07;2.60;;;;;;;9.94;100.00;99654.81;5028331;28;20028;-71
2022/10/06 02:41:41;;;;;;;9.55;3.17;;;;;;;9.85;100.00;99662.09;5028282;28;20010;-71
2022/10/06 02:44:06;;;;;;;11.85;3.17;;;;;;;9.59;100.00;99632.72;5025326;28;20045;-72
2022/10/06 02:46:32;;;;;;;8.80;3.40;;;;;;;9.71;100.00;99660.16;5015485;28;20037;-71
2022/10/06 02:48:58;;;;;;;7.28;3.17;;;;;;;9.71;100.00;99676.38;5009442;28;20399;-71
2022/10/06 02:51:23;;;;;;;9.70;3.70;;;;;;;9.75;100.00;99675.00;5011581;28;20022;-71
2022/10/06 02:53:49;;;;;;;6.65;3.13;;;;;;;9.87;100.00;99682.53;5010197;28;20383;-71
2022/10/06 02:56:21;;;;;;;7.07;3.40;;;;;;;10.03;100.00;99683.44;5010022;28;20034;-71
2022/10/06 02:58:46;;;;;;;5.43;2.85;;;;;;;10.19;100.00;99698.72;5012409;28;20026;-71
2022/10/06 03:01:14;;;;;;;7.72;3.50;;;;;;;10.25;100.00;99690.75;5014777;28;20060;-71
2022/10/06 03:03:40;;;;;;;7.70;2.72;;;;;;;10.36;100.00;99691.41;5009914;28;20430;-71
2022/10/06 03:06:20;;;;;;;6.93;3.13;;;;;;;10.45;100.00;99701.13;5011128;28;20060;-71
2022/10/06 03:08:54;;;;;;;6.03;3.03;;;;;;;10.56;100.00;99700.72;5006447;28;20104;-71
2022/10/06 03:11:22;;;;;;;5.32;3.10;;;;;;;10.71;100.00;99711.56;5021979;28;20013;-71
2022/10/06 03:13:49;;;;;;;7.63;3.30;;;;;;;10.77;100.00;99720.81;5003383;28;20042;-71
2022/10/06 03:16:18;;;;;;;7.70;3.13;;;;;;;10.82;100.00;99719.28;5008709;28;20025;-71
2022/10/06 03:18:51;;;;;;;5.95;3.17;;;;;;;10.88;100.00;99725.81;5011544;28;20160;-71
2022/10/06 03:21:17;;;;;;;5.20;2.88;;;;;;;10.94;100.00;99727.78;5011010;28;20052;-71
2022/10/06 03:23:44;;;;;;;9.18;2.90;;;;;;;11.08;100.00;99727.00;5008805;28;20076;-72
2022/10/06 03:26:10;;;;;;;7.45;3.05;;;;;;;11.14;100.00;99728.97;5003251;28;20050;-71
2022/10/06 03:28:35;;;;;;;7.38;2.83;;;;;;;11.11;100.00;99723.91;5010771;28;20068;-71
2022/10/06 03:31:02;;;;;;;5.00;2.90;;;;;;;11.05;100.00;99732.75;5005376;28;20036;-71
2022/10/06 03:33:28;;;;;;;7.60;3.05;;;;;;;11.09;100.00;99728.66;5031870;22;20084;-67
2022/10/06 03:36:08;;;;;;;6.93;3.97;;;;;;;11.18;100.00;99732.97;5006124;28;20609;-67
2022/10/06 03:38:35;;;;;;;5.93;2.53;;;;;;;11.05;100.00;99727.34;5005366;28;20533;-67
2022/10/06 03:41:09;;;;;;;4.50;3.17;;;;;;;11.13;100.00;99751.66;5011189;28;20033;-67
2022/10/06 03:43:35;;;;;;;3.03;2.58;;;;;;;11.26;100.00;99750.16;5008052;28;20044;-68
2022/10/06 03:46:02;;;;;;;8.13;3.25;;;;;;;11.27;100.00;99739.16;5003615;28;20034;-68
2022/10/06 03:48:29;;;;;;;6.50;2.42;;;;;;;11.40;100.00;99761.03;5006747;28;20738;-68
2022/10/06 03:50:59;;;;;;;6.35;2.55;;;;;;;11.52;100.00;99760.56;4998690;28;20030;-68
2022/10/06 03:53:27;;;;;;;5.55;2.90;;;;;;;11.46;100.00;99756.75;5007995;28;20025;-68
2022/10/06 03:56:03;;;;;;;5.20;2.55;;;;;;;11.51;100.00;99769.75;5000277;28;20028;-68
2022/10/06 03:58:30;;;;;;;6.00;3.03;;;;;;;11.46;100.00;99761.31;5009836;28;20026;-69
2022/10/06 04:01:05;;;;;;;10.48;3.15;;;;;;;11.50;100.00;99773.47;5010306;28;20502;-68
2022/10/06 04:03:32;;;;;;;8.80;3.00;;;;;;;11.53;100.00;99770.41;5006037;28;20042;-68
2022/10/06 04:05:59;;;;;;;7.15;3.05;;;;;;;11.56;100.00;99773.56;5008737;28;20026;-68
2022/10/06 04:08:25;;;;;;;5.30;2.88;;;;;;;11.59;100.00;99769.66;5003740;28;20042;-68
2022/10/06 04:10:50;;;;;;;8.00;3.40;;;;;;;11.58;100.00;99767.94;5006296;28;20117;-68
2022/10/06 04:13:17;;;;;;;6.63;3.00;;;;;;;11.77;100.00;99772.81;5007602;28;20034;-68
2022/10/06 04:15:43;;;;;;;8.02;3.10;;;;;;;11.79;100.00;99773.50;5011389;28;20029;-68
2022/10/06 04:18:09;;;;;;;7.07;2.83;;;;;;;11.81;100.00;99773.28;5002064;28;20037;-68
2022/10/06 04:20:34;;;;;;;5.68;2.97;;;;;;;11.83;100.00;99774.78;5005324;28;20463;-68
2022/10/06 04:23:00;;;;;;;7.03;2.58;;;;;;;11.85;100.00;99789.00;5010135;28;20033;-68
2022/10/06 04:25:25;;;;;;;4.93;2.42;;;;;;;11.84;100.00;99789.16;5002959;28;20052;-68
2022/10/06 04:27:52;;;;;;;7.88;2.80;;;;;;;11.92;100.00;99785.56;5009165;28;20368;-68
2022/10/06 04:30:17;;;;;;;4.47;2.90;;;;;;;11.94;100.00;99789.75;5002787;28;20025;-68
2022/10/06 04:32:44;;;;;;;4.78;2.63;;;;;;;11.98;100.00;99799.22;5008065;28;20030;-68
2022/10/06 04:35:09;;;;;;;5.63;2.80;;;;;;;12.06;100.00;99801.81;5008990;28;20029;-68
2022/10/06 04:37:35;;;;;;;7.75;2.58;;;;;;;12.13;100.00;99798.34;5009024;28;20602;-68
2022/10/06 04:40:00;;;;;;;6.57;3.00;;;;;;;12.22;100.00;99787.22;5001309;28;20043;-70
2022/10/06 04:42:27;;;;;;;5.45;2.30;;;;;;;12.28;100.00;99801.88;5009656;28;20030;-71
2022/10/06 04:44:53;;;;;;;5.32;2.85;;;;;;;12.28;100.00;99800.00;5005192;28;20033;-75
2022/10/06 04:47:18;;;;;;;7.43;3.42;;;;;;;12.45;100.00;99803.34;5003226;28;20113;-74
2022/10/06 04:49:43;;;;;;;3.83;2.60;;;;;;;12.42;100.00;99809.19;5003731;28;20054;-74
2022/10/06 04:52:09;;;;;;;4.45;2.92;;;;;;;12.39;100.00;99815.00;5005836;28;20109;-74
2022/10/06 04:54:34;;;;;;;5.43;2.80;;;;;;;12.35;100.00;99808.25;5008435;28;20491;-74
2022/10/06 04:56:59;;;;;;;7.10;3.33;;;;;;;12.42;100.00;99814.59;5010934;28;20533;-74
2022/10/06 05:00:21;;;;;;;10.90;3.08;;;;;;;12.54;100.00;99824.97;5008684;28;20022;-74
2022/10/06 05:02:10;;;;;;;5.60;2.80;;;;;;;12.68;100.00;99819.50;5008492;28;20487;-74
2022/10/06 05:04:35;;;;;;;5.25;3.05;;;;;;;12.86;100.00;99816.34;5011150;28;20033;-75
2022/10/06 05:07:01;;;;;;;5.63;3.25;;;;;;;12.91;100.00;99821.19;5011223;28;20040;-75
2022/10/06 05:09:26;;;;;;;4.95;2.95;;;;;;;12.94;100.00;99827.09;5004046;28;20057;-73
2022/10/06 05:11:51;;;;;;;7.22;2.75;;;;;;;12.80;100.00;99827.13;5010771;28;20037;-75
2022/10/06 05:14:17;;;;;;;9.05;3.05;;;;;;;12.74;100.00;99839.59;5008282;28;20018;-75
2022/10/06 05:16:42;;;;;;;7.07;3.13;;;;;;;12.68;100.00;99840.34;5011759;28;20036;-75
2022/10/06 05:19:07;;;;;;;5.13;2.70;;;;;;;12.78;100.00;99838.16;5007752;28;20491;-74
2022/10/06 05:21:33;;;;;;;9.93;3.08;;;;;;;12.81;100.00;99829.66;5012140;28;20030;-73
2022/10/06 05:23:59;;;;;;;4.55;3.17;;;;;;;12.96;100.00;99843.16;5012625;28;20033;-74
2022/10/06 05:26:27;;;;;;;10.30;2.92;;;;;;;13.02;100.00;99842.41;5005859;28;20053;-76
2022/10/06 05:28:53;;;;;;;5.10;2.73;;;;;;;12.88;100.00;99832.44;5005591;28;20022;-76
2022/10/06 05:31:25;;;;;;;8.52;3.33;;;;;;;13.06;100.00;99853.72;5006195;28;20030;-76
2022/10/06 05:33:50;;;;;;;8.98;2.95;;;;;;;12.91;100.00;99835.59;5001440;28;20030;-70
2022/10/06 05:36:23;;;;;;;7.63;3.15;;;;;;;13.07;100.00;99853.53;5010245;28;20028;-69
2022/10/06 05:38:49;;;;;;;6.53;2.83;;;;;;;13.01;100.00;99851.59;5000596;28;20042;-72
2022/10/06 05:41:17;;;;;;;4.65;2.70;;;;;;;13.03;100.00;99862.25;5003004;28;20057;-73
2022/10/06 05:43:43;;;;;;;5.25;3.08;;;;;;;13.08;100.00;99857.09;5012301;28;20029;-73
2022/10/06 05:46:18;;;;;;;9.07;3.38;;;;;;;13.11;100.00;99875.72;5011566;28;20360;-73
2022/10/06 05:48:46;;;;;;;9.07;3.45;;;;;;;13.06;100.00;99865.44;4999953;28;20034;-75
2022/10/06 05:51:12;;;;;;;6.00;2.92;;;;;;;13.18;100.00;99884.78;5002725;28;20041;-73
2022/10/06 05:53:37;;;;;;;9.40;3.20;;;;;;;13.16;100.00;99874.09;5003008;28;20034;-75
2022/10/06 05:56:14;;;;;;;7.35;3.17;;;;;;;13.32;100.00;99891.22;5011319;28;20032;-73
2022/10/06 05:58:42;;;;;;;8.45;3.40;;;;;;;13.29;100.00;99897.06;5022754;28;20383;-72
2022/10/06 06:01:17;;;;;;;10.05;3.00;;;;;;;13.33;100.00;99896.44;5007287;28;20034;-73
2022/10/06 06:03:48;;;;;;;6.57;3.00;;;;;;;13.36;100.00;99909.66;5010663;28;20042;-73
2022/10/06 06:06:23;;;;;;;5.60;3.08;;;;;;;13.38;100.00;99909.47;5007118;28;20030;-73
2022/10/06 06:09:05;;;;;;;4.60;2.80;;;;;;;13.45;100.00;99914.97;5008275;28;20467;-77
2022/10/06 06:11:31;;;;;;;7.95;3.72;;;;;;;13.50;100.00;99913.34;5012153;28;20026;-76
2022/10/06 06:14:00;;;;;;;7.47;3.10;;;;;;;13.56;100.00;99917.16;5010719;28;20088;-76
2022/10/06 06:16:29;;;;;;;16.55;4.07;;;;;;;13.56;100.00;99907.13;5013860;28;20022;-76
2022/10/06 06:18:54;;;;;;;7.65;3.00;;;;;;;13.64;100.00;99917.03;5009873;28;20018;-76
2022/10/06 06:21:20;;;;;;;3.70;2.58;;;;;;;13.71;100.00;99919.81;5011672;28;20093;-76
2022/10/06 06:23:47;;;;;;;7.25;3.42;;;;;;;13.79;100.00;99934.09;5010461;28;20517;-77
2022/10/06 06:26:18;;;;;;;7.18;3.10;;;;;;;13.84;100.00;99949.00;5010201;28;20026;-75
2022/10/06 06:28:45;;;;;;;5.68;3.10;;;;;;;13.74;100.00;99938.44;5013371;28;20037;-75
2022/10/06 06:31:10;;;;;;;10.95;2.95;;;;;;;13.75;100.00;99954.59;5006652;28;20029;-76
2022/10/06 06:33:38;;;;;;;4.95;3.03;;;;;;;13.68;100.00;99940.06;5005170;28;20399;-76
2022/10/06 06:36:12;;;;;;;8.40;3.03;;;;;;;13.72;100.00;99944.06;5011816;28;20421;-76
2022/10/06 06:38:37;;;;;;;8.82;3.15;;;;;;;13.89;100.00;99946.53;5004471;28;20026;-75
2022/10/06 06:41:03;;;;;;;10.07;3.25;;;;;;;14.06;100.00;99958.78;5004273;28;20025;-75
2022/10/06 06:43:28;;;;;;;7.03;3.17;;;;;;;14.15;100.00;99943.19;5011752;28;20368;-74
2022/10/06 06:46:00;;;;;;;9.23;2.90;;;;;;;14.39;100.00;99966.38;5003713;28;20034;-74
2022/10/06 06:48:26;;;;;;;5.85;2.80;;;;;;;14.50;100.00;99971.25;5005615;28;20033;-75
2022/10/06 06:50:57;;;;;;;4.50;2.38;;;;;;;14.48;100.00;99981.50;5008537;28;20021;-75
2022/10/06 06:53:22;;;;;;;8.07;2.80;;;;;;;14.20;100.00;99967.88;5012110;28;20036;-73
2022/10/06 06:55:49;;;;;;;9.85;2.65;;;;;;;14.24;100.00;99991.78;5010883;28;20034;-74
2022/10/06 06:58:16;;;;;;;7.07;2.50;;;;;;;14.07;100.00;99965.94;5011592;28;20028;-73
2022/10/06 07:00:41;;;;;;;7.68;3.08;;;;;;;14.28;100.00;100000.44;5006004;28;20052;-74
2022/10/06 07:03:11;;;;;;;5.32;2.92;;;;;;;14.36;100.00;100004.88;5007854;28;20559;-74
2022/10/06 07:05:38;;;;;;;9.70;3.28;;;;;;;14.41;100.00;100010.56;5009009;28;20551;-74
2022/10/06 07:08:07;;;;;;;6.35;3.90;;;;;;;14.27;100.00;100003.34;5011694;28;20192;-73
2022/10/06 07:10:35;;;;;;;8.00;4.20;;;;;;;14.37;100.00;100015.56;5008077;28;20045;-73
2022/10/06 07:13:00;;;;;;;7.82;4.28;;;;;;;14.36;100.00;100007.59;5009995;28;20060;-74
2022/10/06 07:26:21;;;;;;;7.18;3.08;;;;;;;14.76;100.00;100030.50;5025672;28;20045;-74
2022/10/06 07:28:48;;;;;;;5.03;2.85;;;;;;;14.75;100.00;100015.22;5023750;28;20026;-74
2022/10/06 07:31:17;;;;;;;6.43;3.20;;;;;;;14.93;100.00;100041.06;5021664;28;20018;-75
2022/10/06 07:33:43;;;;;;;9.40;3.58;;;;;;;15.05;100.00;100044.94;5023616;28;20026;-75
2022/10/06 07:36:09;;;;;;;10.95;3.50;;;;;;;15.06;100.00;100041.16;5017344;28;20117;-74
2022/10/06 07:38:36;;;;;;;8.00;3.58;;;;;;;15.20;100.00;100033.91;5022327;28;20026;-74
2022/10/06 07:41:01;;;;;;;10.02;3.53;;;;;;;15.29;100.00;100051.75;5024873;28;20033;-74
2022/10/06 07:43:27;;;;;;;8.85;3.58;;;;;;;15.33;100.00;100058.47;5027692;28;20073;-74
2022/10/06 07:45:52;;;;;;;12.05;3.58;;;;;;;15.43;100.00;100055.34;5019629;28;20029;-74
2022/10/06 07:48:20;;;;;;;5.50;3.15;;;;;;;15.57;100.00;100049.75;5016757;28;20022;-74
2022/10/06 07:50:48;;;;;;;9.60;3.13;;;;;;;15.77;100.00;100054.44;5004820;28;20096;-75
2022/10/06 07:53:15;;;;;;;6.80;3.05;;;;;;;16.04;100.00;100058.06;5015197;28;20546;-72
2022/10/06 07:55:43;;;;;;;11.65;3.65;;;;;;;16.27;100.00;100060.41;5013847;28;20018;-73
2022/10/06 07:58:16;;;;;;;6.30;2.93;;;;;;;16.27;100.00;100040.41;5005962;28;20426;-73
2022/10/06 08:00:41;;;;;;;8.07;2.72;;;;;;;16.62;100.00;100065.63;5012950;28;20049;-73
2022/10/06 08:03:08;;;;;;;6.55;3.40;;;;;;;16.75;100.00;100070.25;5010735;28;20116;-73
2022/10/06 08:05:33;;;;;;;7.15;3.63;;;;;;;16.76;100.00;100070.00;5011389;28;20539;-73
2022/10/06 08:07:58;;;;;;;10.90;3.08;;;;;;;16.81;100.00;100070.25;5010516;28;20109;-73
2022/10/06 08:10:24;;;;;;;8.20;2.55;;;;;;;17.00;100.00;100067.69;5006742;28;20021;-74
2022/10/06 08:12:49;;;;;;;6.85;2.03;;;;;;;16.94;100.00;100082.22;5009037;28;20022;-73
2022/10/06 08:15:15;;;;;;;8.05;2.30;;;;;;;17.02;100.00;100068.31;5003980;28;20057;-73
2022/10/06 08:17:40;;;;;;;5.88;2.03;;;;;;;17.37;100.00;100081.66;5017336;28;20108;-73
2022/10/06 08:20:09;;;;;;;2.42;1.67;;;;;;;17.40;100.00;100086.72;5018647;28;20029;-74
2022/10/06 08:22:35;;;;;;;7.40;1.98;;;;;;;17.28;100.00;100089.28;5016227;28;20045;-73
2022/10/06 08:25:00;;;;;;;4.85;1.83;;;;;;;17.23;100.00;100064.47;5022101;28;20025;-74
2022/10/06 08:27:29;;;;;;;5.45;1.63;;;;;;;17.58;100.00;100091.47;5025194;28;20052;-74
2022/10/06 08:29:55;;;;;;;4.70;1.77;;;;;;;17.71;100.00;100089.53;5023713;28;20026;-73
2022/10/06 08:32:23;;;;;;;7.43;1.88;;;;;;;17.78;100.00;100096.84;5026621;28;20083;-74
2022/10/06 08:34:49;;;;;;;5.57;1.60;;;;;;;17.95;100.00;100090.66;5025127;28;20029;-73
2022/10/06 08:37:22;;;;;;;7.85;1.63;;;;;;;18.02;100.00;100093.34;5022998;28;20082;-73
2022/10/06 08:39:49;;;;;;;5.22;1.30;;;;;;;18.80;100.00;100084.75;5020127;28;20029;-73
2022/10/06 08:42:30;;;;;;;8.50;1.40;;;;;;;18.99;100.00;100099.34;5021986;28;20034;-73
2022/10/06 08:45:02;;;;;;;5.90;1.38;;;;;;;19.18;100.00;100100.19;5017570;28;20021;-73
2022/10/06 08:47:32;;;;;;;7.20;1.40;;;;;;;18.99;100.00;100102.09;5016268;28;20046;-73
2022/10/06 08:49:58;;;;;;;4.35;1.20;;;;;;;18.91;100.00;100110.59;5010354;28;20085;-73
2022/10/06 08:52:52;;;;;;;10.73;2.10;;;;;;;18.92;100.00;100112.28;5015213;28;20085;-74
2022/10/06 08:55:23;;;;;;;6.20;1.52;;;;;;;18.87;100.00;100103.88;5012944;28;20032;-74
2022/10/06 08:57:51;;;;;;;4.25;1.50;;;;;;;18.91;100.00;100109.75;5012236;28;20034;-74
2022/10/06 09:00:17;;;;;;;8.05;1.33;;;;;;;19.07;100.00;100117.38;5013463;28;20427;-73
2022/10/06 09:02:46;;;;;;;6.55;1.63;;;;;;;18.93;100.00;100124.09;5014820;28;20119;-69
2022/10/06 09:05:24;;;;;;;4.10;1.40;;;;;;;18.97;100.00;100120.66;5012062;28;20543;-70
2022/10/06 09:08:15;;;;;;;7.45;1.50;;;;;;;18.92;100.00;100117.75;5017364;28;20308;-68
2022/10/06 09:11:01;;;;;;;3.25;1.40;;;;;;;19.00;100.00;100119.38;5023624;28;20028;-69
2022/10/06 09:13:36;;;;;;;3.67;1.10;;;;;;;19.22;94.92;100115.13;5025273;28;20024;-70
2022/10/06 09:16:06;;;;;;;5.45;1.20;;;;;;;19.47;93.24;100120.53;5017156;28;20033;-70
2022/10/06 09:18:42;;;;;;;7.05;1.15;;;;;;;20.05;90.51;100107.34;5014644;28;20032;-71
2022/10/06 09:21:14;;;;;;;4.75;1.20;;;;;;;20.61;85.88;100111.56;5019430;28;20034;-71
2022/10/06 09:23:47;;;;;;;3.22;1.02;;;;;;;21.04;82.40;100118.66;5012043;28;20048;-71
2022/10/06 09:26:14;;;;;;;3.20;1.23;;;;;;;21.51;77.36;100126.03;5018250;28;20093;-70
2022/10/06 09:28:39;;;;;;;7.07;1.33;;;;;;;22.00;73.70;100126.47;5020705;28;20022;-70
2022/10/06 09:31:27;;;;;;;5.97;1.00;;;;;;;22.17;71.70;100123.78;5018708;28;20026;-71
2022/10/06 09:33:58;;;;;;;6.65;1.30;;;;;;;22.40;71.58;100129.19;5043500;22;20382;-72
2022/10/06 09:36:24;;;;;;;3.45;1.13;;;;;;;22.40;70.42;100118.16;5022355;28;20096;-74
2022/10/06 09:38:55;;;;;;;6.65;0.98;;;;;;;23.36;66.51;100128.22;5030873;28;20029;-71
2022/10/06 09:41:41;;;;;;;6.28;1.33;;;;;;;22.65;65.55;100133.47;5028649;28;20017;-72
2022/10/06 09:44:26;;;;;;;2.33;0.90;;;;;;;21.83;68.95;100129.19;5026942;28;20029;-72
2022/10/06 09:46:52;;;;;;;5.72;1.00;;;;;;;22.17;66.73;100129.28;5030531;28;20021;-72
2022/10/06 09:49:23;;;;;;;7.80;1.38;;;;;;;23.55;62.22;100125.97;5027522;28;20495;-72
2022/10/06 09:52:13;;;;;;;5.45;0.90;;;;;;;25.36;56.97;100140.22;5032116;28;20034;-72
2022/10/06 09:54:42;;;;;;;3.08;1.17;;;;;;;25.65;53.35;100127.84;5026988;28;20387;-72
2022/10/06 09:57:13;;;;;;;7.67;0.80;;;;;;;25.65;53.64;100136.16;5031398;28;20017;-72
2022/10/06 09:59:44;;;;;;;3.13;0.93;;;;;;;25.46;55.27;100133.88;5024240;28;20030;-72
2022/10/06 10:02:39;;;;;;;3.15;1.02;;;;;;;23.79;58.66;100140.44;5029410;28;20030;-72
2022/10/06 10:05:21;;;;;;;5.20;1.05;;;;;;;22.88;60.44;100136.06;5024124;28;20021;-72
2022/10/06 10:07:59;;;;;;;6.05;1.02;;;;;;;22.26;61.38;100114.03;5027315;28;20026;-72
2022/10/06 10:10:24;;;;;;;3.95;1.23;;;;;;;21.76;63.32;100128.50;5028358;28;20087;-72
2022/10/06 10:12:52;;;;;;;5.57;1.10;;;;;;;21.06;66.27;100133.00;5025500;28;20471;-72
2022/10/06 10:15:17;;;;;;;6.10;1.10;;;;;;;21.22;69.16;100139.69;5030556;28;20033;-72
2022/10/06 10:17:55;;;;;;;3.87;1.00;;;;;;;20.81;70.83;100141.50;5031135;28;20075;-71
2022/10/06 10:20:28;;;;;;;5.07;1.63;;;;;;;20.25;71.36;100142.78;5031446;28;20280;-71
2022/10/06 10:22:57;;;;;;;7.20;1.17;;;;;;;20.70;71.47;100139.59;5028162;28;20045;-70
2022/10/06 10:25:28;;;;;;;6.50;1.08;;;;;;;20.47;71.33;100140.34;5029741;28;20029;-70
2022/10/06 10:28:16;;;;;;;3.75;0.93;;;;;;;20.46;69.72;100145.00;5031951;28;20049;-69
2022/10/06 10:30:55;;;;;;;3.88;1.13;;;;;;;20.41;71.43;100141.25;5021211;28;20099;-70
2022/10/06 10:33:44;;;;;;;4.43;1.10;;;;;;;20.72;71.01;100148.41;5026598;28;20029;-69
2022/10/06 10:36:13;;;;;;;5.05;0.98;;;;;;;20.23;72.51;100123.78;5021353;28;20030;-69
2022/10/06 10:38:41;;;;;;;3.05;0.98;;;;;;;20.46;72.81;100146.88;5019484;28;20037;-69
2022/10/06 10:41:19;;;;;;;5.07;0.97;;;;;;;20.75;73.53;100147.94;5027252;28;20029;-69
2022/10/06 10:44:02;;;;;;;10.70;1.23;;;;;;;21.25;72.35;100153.00;5026205;28;20525;-69
2022/10/06 10:46:29;;;;;;;4.22;0.93;;;;;;;21.42;71.82;100142.94;5019538;28;20025;-72
2022/10/06 10:49:02;;;;;;;4.15;1.10;;;;;;;21.97;68.32;100143.50;5026015;28;20132;-72
2022/10/06 10:51:37;;;;;;;4.25;0.75;;;;;;;22.39;65.14;100145.97;5023882;28;20029;-70
2022/10/06 10:54:18;;;;;;;3.03;1.00;;;;;;;23.22;61.17;100138.81;5025864;28;20120;-72
2022/10/06 10:56:47;;;;;;;3.88;0.80;;;;;;;24.24;57.61;100140.09;5024256;28;20033;-72
2022/10/06 10:59:20;;;;;;;2.70;0.82;;;;;;;24.64;55.73;100138.00;5025531;28;20125;-72
2022/10/06 11:01:51;;;;;;;3.40;0.80;;;;;;;25.15;52.65;100132.81;5018278;28;20040;-70
2022/10/06 11:04:17;;;;;;;6.25;0.93;;;;;;;24.92;54.41;100134.91;5020338;28;20033;-70
2022/10/06 11:07:01;;;;;;;4.93;1.10;;;;;;;23.47;53.25;100141.06;5025400;28;20041;-70
2022/10/06 11:09:47;;;;;;;4.55;0.82;;;;;;;23.96;54.47;100132.88;5028960;28;20029;-69
2022/10/06 11:12:33;;;;;;;2.05;0.63;;;;;;;23.50;53.90;100137.81;5028966;28;20037;-70
2022/10/06 11:15:26;;;;;;;6.32;1.20;;;;;;;23.15;56.13;100138.13;5020968;28;20112;-69
2022/10/06 11:17:55;;;;;;;4.22;0.95;;;;;;;22.90;57.33;100141.34;5027706;28;20057;-72
2022/10/06 11:20:36;;;;;;;6.47;1.00;;;;;;;23.24;57.44;100136.63;5027447;28;20029;-70
2022/10/06 11:23:20;;;;;;;7.85;0.80;;;;;;;23.69;56.14;100131.97;5025478;28;20627;-70
2022/10/06 11:25:57;;;;;;;6.65;1.10;;;;;;;23.87;54.44;100126.16;5020748;28;20056;-69
2022/10/06 11:28:41;;;;;;;5.00;0.80;;;;;;;23.96;55.59;100127.34;5025308;28;20041;-72
2022/10/06 11:31:25;;;;;;;7.10;1.10;;;;;;;24.09;53.94;100134.41;5026304;28;20033;-70
2022/10/06 11:33:53;;;;;;;2.45;0.60;;;;;;;23.34;53.66;100125.72;5025754;28;20029;-70
2022/10/06 11:36:43;;;;;;;4.88;0.82;;;;;;;22.99;53.86;100123.28;5022660;28;20029;-69
2022/10/06 11:39:36;;;;;;;3.60;0.77;;;;;;;23.40;54.27;100108.13;5021529;28;20108;-72
2022/10/06 11:42:42;;;;;;;5.32;0.90;;;;;;;23.50;52.11;100114.88;5020474;28;20034;-71
2022/10/06 11:45:13;;;;;;;6.68;1.10;;;;;;;23.13;55.13;100101.66;5023128;28;20029;-72